Αναφορές Αεροδρομίων

 

KSJC - San Jose, California, USA
Distance from station: ΒΑ 14km
Ενημερώθηκε: 19/06/2021 20:53
Few Clouds
Few Clouds
 Ανεμος από ΒΔ
Ανεμος: ΒΔ 11 km/h
Θερμοκρασία: 24°C
Σημείο Δρόσου: 14°C
Υγρασία: 54%
Βαρόμετρο: 1007.8 hPa
Clouds: Few Clouds
Visibility: 16 km
Cloud details: Few Clouds 2438 m
Few Clouds 4572 m
2021/06/19 17:53 KSJC 191753Z 31006KT 10SM FEW080 FEW150 24/14 A2976 RMK AO2 SLP078 T02440144 10256 20172 50000
KNUQ - Moffett Nas/Mtn, California, USA
Distance from station: Β 14km
Ενημερώθηκε: 19/06/2021 21:15
Αίθριος
Αίθριος
 Ανεμος από Β
Ανεμος: Β 15 km/h
Θερμοκρασία: 22°C
Σημείο Δρόσου: 14°C
Υγρασία: 61%
Βαρόμετρο: 1008.5 hPa
Clouds: Αίθριος
Visibility: 11 km
2021/06/19 18:15 KNUQ 191815Z AUTO 35008KT 7SM CLR 22/14 A2978 RMK AO2
 
KPAO - Palo Alto, California, USA
Distance from station: ΒΒΔ 23km
Ενημερώθηκε: 19/06/2021 20:47
Αίθριος
Αίθριος
 Ανεμος από Β
Ανεμος: Β 15 km/h
Θερμοκρασία: 21°C
Σημείο Δρόσου: 14°C
Υγρασία: 64%
Βαρόμετρο: 1008.5 hPa
Clouds: Αίθριος
Visibility: 16 km
2021/06/19 17:47 KPAO 191747Z 36008KT 10SM SKC 21/14 A2978
KRHV - San Jose/Reid, California, USA
Distance from station: ΑΒΑ 19km
Ενημερώθηκε: 19/06/2021 20:47
Αίθριος
Αίθριος
 Ανεμος από varies
Ανεμος: varies 9 km/h
Θερμοκρασία: 27°C
Σημείο Δρόσου: 12°C
Υγρασία: 39%
Βαρόμετρο: 1008.1 hPa
Clouds: Αίθριος
Visibility: 16 km
2021/06/19 17:47 KRHV 191747Z VRB05KT 10SM SKC 27/12 A2977
 
KOAK - Oakland, California, USA
Distance from station: ΒΒΔ 50km
Ενημερώθηκε: 19/06/2021 20:53
Μερικώς νεφελώδης
Μερικώς νεφελώδης
 Ανεμος από Δ
Ανεμος: Δ 9 km/h
Θερμοκρασία: 22°C
Σημείο Δρόσου: 13°C
Υγρασία: 57%
Βαρόμετρο: 1008.8 hPa
Clouds: Μερικώς νεφελώδης
Visibility: 16 km
Cloud details: Μερικώς νεφελώδης 7620 m
2021/06/19 17:53 KOAK 191753Z 28005KT 10SM SCT250 22/13 A2979 RMK AO2 SLP086 T02170128 10222 20139 50004
KSQL - San Carlos Airpo, California, USA
Distance from station: ΒΔ 34km
Ενημερώθηκε: 19/06/2021 20:51
Αίθριος
Αίθριος
 Ανεμος από Β
Ανεμος: Β 13 km/h
Θερμοκρασία: 22°C
Σημείο Δρόσου: 13°C
Υγρασία: 57%
Βαρόμετρο: 1008.8 hPa
Clouds: Αίθριος
Visibility: 16 km
2021/06/19 17:51 KSQL 191751Z 35007KT 10SM SKC 22/13 A2979
 
KSFO - San Francisco, California, USA
Distance from station: ΒΔ 49km
Ενημερώθηκε: 19/06/2021 20:56
Few Clouds
Few Clouds
 Ανεμος από ΒΒΑ
Ανεμος: ΒΒΑ 11 km/h
Θερμοκρασία: 22°C
Σημείο Δρόσου: 13°C
Υγρασία: 57%
Βαρόμετρο: 1008.5 hPa
Clouds: Few Clouds
Visibility: 16 km
Cloud details: Few Clouds 305 m
Few Clouds 6096 m
2021/06/19 17:56 KSFO 191756Z 03006KT 10SM FEW010 FEW200 22/13 A2978 RMK AO2 SLP084 T02170133 10217 20156 50004
KE16 - San Martin, California, USA
Distance from station: ΑΝΑ 43km
Ενημερώθηκε: 19/06/2021 21:15
Αίθριος
Αίθριος
 Ανεμος από ΝΑ
Ανεμος: ΝΑ 17 km/h
Θερμοκρασία: 23°C
Σημείο Δρόσου: 12°C
Υγρασία: 50%
Βαρόμετρο: 1009.5 hPa
Clouds: Αίθριος
Visibility: 16 km
2021/06/19 18:15 KE16 191815Z AUTO 13009KT 10SM CLR 23/12 A2981 RMK AO2 PWINO PNO
 
KWVI - Watsonville, California, USA
Distance from station: ΝΝΑ 44km
Ενημερώθηκε: 19/06/2021 20:53
Few Clouds
Few Clouds
 Ανεμος από varies
Ανεμος: varies 6 km/h
Θερμοκρασία: 18°C
Σημείο Δρόσου: 13°C
Υγρασία: 73%
Βαρόμετρο: 1010.5 hPa
Clouds: Few Clouds
Visibility: 16 km
Cloud details: Few Clouds 244 m
2021/06/19 17:53 KWVI 191753Z AUTO VRB03KT 10SM FEW008 18/13 A2984 RMK AO2 SLP104 T01780128 10178 20122 58002
KHAF - Half Moon Bay, California, USA
Distance from station: ΔΒΔ 50km
Ενημερώθηκε: 19/06/2021 21:15
Haze, Μερικώς νεφελώδης
Haze, Μερικώς νεφελώδης
 Ανεμος από Ν
Ανεμος: Ν 20 km/h
Θερμοκρασία: 14°C
Σημείο Δρόσου: 12°C
Υγρασία: 88%
Βαρόμετρο: 1010.5 hPa
Περίληψη: Haze
Clouds: Μερικώς νεφελώδης
Visibility: 4 km
Cloud details: Μερικώς νεφελώδης 183 m
2021/06/19 18:15 KHAF 191815Z AUTO 18011KT 2 1/2SM HZ SCT006 14/12 A2984 RMK AO2
 
KHWD - Hayward, California, USA
Distance from station: Β 44km
Ενημερώθηκε: 19/06/2021 20:54
Αίθριος
Αίθριος
 Ανεμος από ΔΒΔ
Ανεμος: ΔΒΔ 13 km/h
Θερμοκρασία: 23°C
Σημείο Δρόσου: 13°C
Υγρασία: 53%
Βαρόμετρο: 1008.1 hPa
Clouds: Αίθριος
Visibility: 16 km
2021/06/19 17:54 KHWD 191754Z 29007KT 10SM CLR 23/13 A2977 RMK AO2 SLP091 T02330133 10233 20133 50003
KLVK - Livermore, California, USA
Distance from station: ΒΒΑ 51km
Ενημερώθηκε: 19/06/2021 20:53
Αίθριος
Αίθριος
 Ανεμος από varies
Ανεμος: varies 6 km/h
Θερμοκρασία: 29°C
Σημείο Δρόσου: 7°C
Υγρασία: 25%
Βαρόμετρο: 1007.5 hPa
Clouds: Αίθριος
Visibility: 16 km
2021/06/19 17:53 KLVK 191753Z VRB03KT 10SM CLR 29/07 A2975 RMK AO2 SLP068 T02890067 10294 20172 50001